Time;durP1;ratioP1;P1;durP2;ratioP2;P2;SDS_P1;SDS_P2;PMS_P1;PMS_P2;Temp;Humidity;BMP_temperature;BMP_pressure;BME280_temperature;BME280_humidity;BME280_pressure;Samples;Min_cycle;Max_cycle;Signal;HPM_P1;HPM_P2
2022/04/22 00:02:19;;;;;;;17.67;14.45;;;;;;;9.07;68.57;100327.44;5064447;28;20025;-31
2022/04/22 00:04:45;;;;;;;19.02;14.43;;;;;;;9.07;68.68;100326.59;5061242;28;20032;-31
2022/04/22 00:07:10;;;;;;;18.77;14.02;;;;;;;9.06;68.71;100315.19;5064504;28;20438;-31
2022/04/22 00:09:35;;;;;;;17.17;13.32;;;;;;;9.06;68.62;100324.81;5062471;28;20056;-31
2022/04/22 00:12:01;;;;;;;18.50;13.80;;;;;;;9.06;69.02;100324.81;5057438;28;20108;-31
2022/04/22 00:14:26;;;;;;;19.10;15.02;;;;;;;9.05;68.61;100318.69;5065826;28;20020;-31
2022/04/22 00:16:51;;;;;;;18.55;14.85;;;;;;;9.03;69.08;100309.94;5065433;28;20704;-31
2022/04/22 00:19:17;;;;;;;19.33;14.10;;;;;;;9.05;68.66;100317.81;5060775;28;20063;-31
2022/04/22 00:21:43;;;;;;;20.17;14.43;;;;;;;9.04;68.80;100310.81;5064351;28;20384;-31
2022/04/22 00:24:08;;;;;;;19.35;14.18;;;;;;;9.03;68.75;100312.56;5059768;28;20372;-30
2022/04/22 00:26:34;;;;;;;21.98;15.40;;;;;;;9.03;68.62;100309.09;5065821;28;20094;-31
2022/04/22 00:28:59;;;;;;;18.95;14.43;;;;;;;9.01;68.69;100303.84;5063614;28;20020;-31
2022/04/22 00:31:25;;;;;;;17.92;14.23;;;;;;;9.01;68.44;100306.47;5048457;28;20024;-31
2022/04/22 00:33:50;;;;;;;20.83;15.15;;;;;;;9.01;68.32;100300.31;5061193;28;20445;-30
2022/04/22 00:36:15;;;;;;;19.50;14.30;;;;;;;9.00;68.75;100304.69;5065605;28;20106;-31
2022/04/22 00:38:41;;;;;;;19.70;14.55;;;;;;;9.00;68.79;100299.44;5064438;28;20444;-31
2022/04/22 00:41:06;;;;;;;19.90;13.90;;;;;;;8.99;68.53;100295.06;5067239;28;20505;-31
2022/04/22 00:43:46;;;;;;;21.42;15.15;;;;;;;8.99;68.68;100289.81;5063838;28;20150;-31
2022/04/22 00:46:12;;;;;;;22.90;15.43;;;;;;;8.97;68.64;100284.56;5059633;28;20155;-30
2022/04/22 00:48:37;;;;;;;19.88;14.25;;;;;;;8.98;69.04;100280.19;5059450;28;20111;-31
2022/04/22 00:51:04;;;;;;;19.75;15.10;;;;;;;8.97;68.94;100278.44;5056554;28;20155;-31
2022/04/22 00:53:31;;;;;;;20.77;14.38;;;;;;;8.96;68.86;100276.66;5056071;28;20013;-31
2022/04/22 00:55:56;;;;;;;20.45;15.00;;;;;;;8.95;68.99;100274.94;5063290;28;20025;-31
2022/04/22 00:58:21;;;;;;;19.75;14.23;;;;;;;8.95;68.89;100272.31;5063247;28;20020;-31
2022/04/22 01:00:47;;;;;;;18.02;13.63;;;;;;;8.93;68.81;100274.06;5061681;28;20162;-31
2022/04/22 01:03:12;;;;;;;18.15;14.68;;;;;;;8.93;68.77;100266.19;5056259;28;20052;-31
2022/04/22 01:11:06;;;;;;;21.38;14.88;;;;;;;8.92;68.80;100253.91;5060891;28;20515;-31
2022/04/22 01:13:32;;;;;;;20.52;14.52;;;;;;;8.91;68.58;100252.19;5056203;28;20056;-31
2022/04/22 01:15:57;;;;;;;20.58;14.95;;;;;;;8.91;68.84;100254.81;5061330;28;20033;-31
2022/04/22 01:18:22;;;;;;;21.98;15.98;;;;;;;8.91;68.42;100244.28;5040032;28;20107;-30
2022/04/22 01:20:48;;;;;;;22.63;15.65;;;;;;;8.90;68.88;100251.28;5061077;28;20039;-31
2022/04/22 01:23:13;;;;;;;18.15;14.35;;;;;;;8.88;68.61;100244.31;5064622;28;20029;-31
2022/04/22 01:25:39;;;;;;;18.88;14.45;;;;;;;8.88;68.90;100236.44;5062342;28;20028;-30
2022/04/22 01:28:04;;;;;;;19.58;13.88;;;;;;;8.88;68.82;100233.78;5060587;28;20042;-29
2022/04/22 01:30:30;;;;;;;18.50;14.75;;;;;;;8.88;68.65;100239.94;5060522;28;20034;-30
2022/04/22 01:32:56;;;;;;;19.33;14.68;;;;;;;8.87;68.58;100240.81;5061155;28;20075;-32
2022/04/22 01:35:23;;;;;;;19.45;15.00;;;;;;;8.85;68.18;100240.84;5062360;28;20035;-31
2022/04/22 01:37:48;;;;;;;20.45;14.77;;;;;;;8.86;68.73;100228.53;5068699;28;20021;-31
2022/04/22 01:40:14;;;;;;;17.88;14.10;;;;;;;8.83;68.75;100224.19;5068829;28;20028;-31
2022/04/22 01:42:39;;;;;;;19.17;14.05;;;;;;;8.84;68.60;100225.94;5068006;28;20021;-31
2022/04/22 01:45:06;;;;;;;20.73;15.60;;;;;;;8.84;68.64;100218.03;5063020;28;20040;-31
2022/04/22 01:47:33;;;;;;;18.85;14.18;;;;;;;8.83;68.93;100216.31;5068913;28;20020;-31
2022/04/22 01:49:59;;;;;;;19.90;14.98;;;;;;;8.84;68.56;100218.03;5066352;28;20026;-31
2022/04/22 01:52:25;;;;;;;19.35;14.73;;;;;;;8.82;69.00;100219.81;5064989;28;20500;-30
2022/04/22 01:54:51;;;;;;;21.10;15.38;;;;;;;8.83;69.20;100220.69;5062166;28;20033;-30
2022/04/22 01:57:17;;;;;;;20.15;14.32;;;;;;;8.82;69.46;100217.19;5064233;28;20479;-31
2022/04/22 01:59:44;;;;;;;21.27;16.02;;;;;;;8.81;69.22;100215.44;5068099;28;20484;-31
2022/04/22 02:02:10;;;;;;;21.30;15.00;;;;;;;8.82;69.00;100216.31;5069091;28;20484;-31
2022/04/22 02:04:35;;;;;;;21.42;16.38;;;;;;;8.80;68.95;100208.44;5066590;28;20082;-30
2022/04/22 02:07:00;;;;;;;19.50;15.55;;;;;;;8.80;69.18;100210.22;5048176;28;20460;-31
2022/04/22 02:09:25;;;;;;;21.77;15.70;;;;;;;8.81;69.22;100204.06;5067182;28;20035;-31
2022/04/22 02:11:51;;;;;;;22.98;15.52;;;;;;;8.81;69.47;100214.56;5065096;28;20403;-31
2022/04/22 02:14:16;;;;;;;24.60;16.33;;;;;;;8.80;69.38;100199.69;5067985;28;20357;-31
2022/04/22 02:16:42;;;;;;;21.17;15.32;;;;;;;8.80;69.21;100202.31;5061933;28;20060;-31
2022/04/22 02:19:07;;;;;;;21.00;16.15;;;;;;;8.80;69.37;100207.59;5065187;28;20102;-31
2022/04/22 02:21:32;;;;;;;22.02;15.77;;;;;;;8.78;69.66;100199.72;5059820;28;20025;-31
2022/04/22 02:23:57;;;;;;;22.00;16.08;;;;;;;8.78;69.64;100202.34;5063746;28;20364;-31
2022/04/22 02:26:23;;;;;;;19.52;15.85;;;;;;;8.78;69.71;100199.72;5063875;28;20059;-31
2022/04/22 02:28:48;;;;;;;21.75;15.40;;;;;;;8.78;69.70;100199.72;5058280;28;20074;-31
2022/04/22 02:31:13;;;;;;;21.08;15.80;;;;;;;8.79;69.23;100205.81;5065054;28;20029;-31
2022/04/22 02:33:41;;;;;;;18.98;14.73;;;;;;;8.76;69.42;100201.47;5066944;28;20395;-31
2022/04/22 02:36:07;;;;;;;21.08;15.23;;;;;;;8.76;69.36;100190.94;5062480;28;20027;-30
2022/04/22 02:38:33;;;;;;;19.90;15.00;;;;;;;8.76;69.24;100190.94;5060897;28;20028;-31
2022/04/22 02:46:28;;;;;;;19.58;14.65;;;;;;;8.76;69.30;100187.44;5065835;28;20067;-31
2022/04/22 02:48:57;;;;;;;21.60;15.73;;;;;;;8.75;69.40;100188.31;5065390;28;20395;-31
2022/04/22 02:51:22;;;;;;;20.70;14.88;;;;;;;8.73;69.22;100183.97;5065079;28;20108;-31
2022/04/22 02:53:48;;;;;;;19.75;15.25;;;;;;;8.74;69.45;100184.84;5066643;28;20124;-31
2022/04/22 02:56:15;;;;;;;20.90;16.20;;;;;;;8.73;69.16;100180.44;5061014;28;20028;-31
2022/04/22 02:58:40;;;;;;;21.45;14.95;;;;;;;8.73;69.55;100177.81;5066008;28;20032;-31
2022/04/22 03:01:06;;;;;;;21.58;15.13;;;;;;;8.73;69.45;100176.06;5065698;28;20032;-31
2022/04/22 03:03:32;;;;;;;24.50;16.88;;;;;;;8.72;69.44;100176.97;5062791;28;20464;-31
2022/04/22 03:05:58;;;;;;;19.48;15.57;;;;;;;8.73;69.54;100183.09;5066305;28;20028;-31
2022/04/22 03:08:23;;;;;;;20.20;15.80;;;;;;;8.72;69.49;100178.72;5059777;28;20587;-31
2022/04/22 03:10:49;;;;;;;20.00;14.88;;;;;;;8.71;69.68;100180.47;5064621;28;20052;-32
2022/04/22 03:13:15;;;;;;;19.02;15.02;;;;;;;8.71;69.41;100175.19;5066850;28;20060;-31
2022/04/22 03:15:41;;;;;;;21.23;15.80;;;;;;;8.71;69.44;100171.72;5062702;28;20058;-31
2022/04/22 03:18:07;;;;;;;18.98;15.43;;;;;;;8.71;69.17;100176.97;5064068;28;20024;-31
2022/04/22 03:20:33;;;;;;;23.33;15.15;;;;;;;8.70;69.60;100183.09;5063493;28;20032;-31
2022/04/22 03:22:58;;;;;;;21.30;14.60;;;;;;;8.70;69.01;100169.97;5063586;28;20027;-30
2022/04/22 03:25:23;;;;;;;20.85;15.73;;;;;;;8.71;69.07;100171.72;5064392;28;20017;-31
2022/04/22 03:27:50;;;;;;;24.20;15.68;;;;;;;8.69;69.34;100174.38;5063313;28;20366;-31
2022/04/22 03:30:15;;;;;;;20.33;15.02;;;;;;;8.70;69.34;100172.59;5061252;28;20116;-31
2022/04/22 03:32:41;;;;;;;21.67;16.30;;;;;;;8.69;69.44;100165.59;5064836;28;20139;-31
2022/04/22 03:35:07;;;;;;;22.15;15.65;;;;;;;8.69;69.50;100173.47;5063930;28;20504;-31
2022/04/22 03:37:32;;;;;;;20.48;15.70;;;;;;;8.67;69.68;100168.22;5064081;28;20113;-31
2022/04/22 03:39:57;;;;;;;19.80;14.60;;;;;;;8.68;69.66;100170.00;5067111;28;20444;-31
2022/04/22 03:42:23;;;;;;;23.02;15.98;;;;;;;8.68;69.75;100172.63;5060851;28;20480;-30
2022/04/22 03:44:49;;;;;;;20.17;16.08;;;;;;;8.67;69.51;100155.09;5063461;28;20025;-31
2022/04/22 03:47:14;;;;;;;22.73;16.27;;;;;;;8.68;69.52;100163.84;5060720;28;20028;-31
2022/04/22 03:49:39;;;;;;;22.35;16.52;;;;;;;8.68;69.22;100155.97;5061562;28;20498;-31
2022/04/22 03:52:05;;;;;;;22.45;16.17;;;;;;;8.68;69.78;100163.84;5066313;28;20546;-31
2022/04/22 03:54:30;;;;;;;18.73;14.98;;;;;;;8.67;69.22;100162.13;5063036;28;20099;-31
2022/04/22 03:59:39;;;;;;;22.40;15.95;;;;;;;8.66;69.53;100153.34;5063529;28;20503;-30
2022/04/22 04:02:05;;;;;;;17.48;14.02;;;;;;;8.67;69.58;100154.25;5063130;28;20025;-30
2022/04/22 04:04:30;;;;;;;21.15;15.38;;;;;;;8.67;69.53;100148.97;5064838;28;20153;-31
2022/04/22 04:06:55;;;;;;;20.30;15.18;;;;;;;8.67;69.91;100143.72;5065635;28;20059;-31
2022/04/22 04:17:38;;;;;;;19.08;15.55;;;;;;;8.68;69.70;100148.09;5064699;28;20453;-31
2022/04/22 04:25:32;;;;;;;19.08;14.18;;;;;;;8.68;69.79;100153.34;5068441;28;20083;-31
2022/04/22 04:27:57;;;;;;;20.17;15.48;;;;;;;8.67;69.40;100156.88;5065114;28;20020;-30
2022/04/22 04:30:23;;;;;;;19.80;15.50;;;;;;;8.65;69.67;100151.63;5061879;28;20021;-31
2022/04/22 04:32:49;;;;;;;19.73;15.75;;;;;;;8.65;69.90;100150.72;5065984;28;20403;-30
2022/04/22 04:35:14;;;;;;;19.25;14.23;;;;;;;8.64;69.65;100155.13;5065493;28;20059;-30
2022/04/22 04:37:41;;;;;;;19.98;15.55;;;;;;;8.65;69.70;100153.38;5064978;28;20664;-31
2022/04/22 04:40:07;;;;;;;20.48;15.15;;;;;;;8.63;69.69;100150.75;5057376;28;20058;-31
2022/04/22 04:42:32;;;;;;;19.13;14.98;;;;;;;8.65;69.34;100153.38;5059504;28;20024;-29
2022/04/22 04:44:58;;;;;;;22.27;16.33;;;;;;;8.63;69.67;100156.00;5062707;28;20033;-30
2022/04/22 04:47:23;;;;;;;19.65;15.25;;;;;;;8.64;70.12;100149.84;5066029;28;20365;-30
2022/04/22 04:49:48;;;;;;;19.30;14.45;;;;;;;8.65;70.07;100153.38;5058154;28;20460;-30
2022/04/22 04:52:14;;;;;;;20.27;15.73;;;;;;;8.64;70.44;100149.00;5040731;28;20068;-30
2022/04/22 04:54:40;;;;;;;18.55;15.73;;;;;;;8.64;70.30;100138.50;5059219;28;20116;-30
2022/04/22 04:57:06;;;;;;;17.92;15.07;;;;;;;8.64;70.29;100139.34;5063004;28;20032;-30
2022/04/22 04:59:32;;;;;;;21.38;13.98;;;;;;;8.63;70.51;100139.38;5062172;28;20522;-30
2022/04/22 05:01:57;;;;;;;18.85;14.95;;;;;;;8.62;70.57;100145.50;5062783;28;20107;-30
2022/04/22 05:04:23;;;;;;;17.83;15.20;;;;;;;8.64;71.00;100143.75;5063815;28;20472;-31
2022/04/22 05:06:48;;;;;;;18.50;15.65;;;;;;;8.63;70.59;100137.59;5063664;28;20037;-31
2022/04/22 05:09:13;;;;;;;20.60;15.05;;;;;;;8.63;70.76;100136.75;5055759;28;20492;-31
2022/04/22 05:11:39;;;;;;;19.27;15.15;;;;;;;8.63;70.91;100134.13;5062860;28;20029;-30
2022/04/22 05:14:04;;;;;;;18.38;14.60;;;;;;;8.63;71.01;100139.38;5068825;28;20134;-31
2022/04/22 05:16:29;;;;;;;18.35;14.65;;;;;;;8.62;70.70;100141.13;5065024;28;20033;-31
2022/04/22 05:18:55;;;;;;;17.33;14.70;;;;;;;8.62;71.03;100141.13;5066430;28;20032;-31
2022/04/22 05:21:20;;;;;;;17.15;14.27;;;;;;;8.63;70.73;100142.88;5066470;28;20026;-31
2022/04/22 05:23:45;;;;;;;17.73;14.20;;;;;;;8.63;71.41;100136.75;5069203;28;20073;-31
2022/04/22 05:26:11;;;;;;;18.38;14.82;;;;;;;8.63;71.41;100136.75;5068561;28;20379;-29
2022/04/22 05:28:36;;;;;;;18.85;14.07;;;;;;;8.63;71.07;100149.91;5065222;28;20430;-31
2022/04/22 05:33:46;;;;;;;20.20;16.08;;;;;;;8.63;71.66;100144.63;5062372;28;20089;-31
2022/04/22 05:36:12;;;;;;;19.67;15.07;;;;;;;8.64;72.22;100154.25;5065146;28;20094;-31
2022/04/22 05:38:37;;;;;;;18.60;14.60;;;;;;;8.63;72.51;100150.75;5067713;28;20024;-31
2022/04/22 05:41:03;;;;;;;19.10;15.15;;;;;;;8.63;72.29;100153.38;5065597;28;20044;-31
2022/04/22 05:43:28;;;;;;;16.20;14.15;;;;;;;8.64;71.97;100155.13;5070655;28;20086;-30
2022/04/22 05:45:54;;;;;;;18.15;15.13;;;;;;;8.63;72.59;100150.75;5068773;28;20016;-30
2022/04/22 05:48:19;;;;;;;19.50;16.02;;;;;;;8.64;72.36;100143.75;5067201;28;20078;-30
2022/04/22 05:50:44;;;;;;;19.70;15.52;;;;;;;8.64;72.88;100146.38;5066792;28;20025;-31
2022/04/22 05:53:10;;;;;;;19.23;15.75;;;;;;;8.65;72.16;100142.84;5050294;28;20036;-31
2022/04/22 05:55:35;;;;;;;20.88;15.85;;;;;;;8.66;73.21;100144.59;5064592;28;20035;-31
2022/04/22 05:58:01;;;;;;;20.52;16.80;;;;;;;8.66;73.49;100149.84;5063575;28;20021;-30
2022/04/22 06:00:30;;;;;;;21.40;16.77;;;;;;;8.66;73.58;100140.22;5068994;28;20494;-31
2022/04/22 06:02:58;;;;;;;19.02;15.25;;;;;;;8.67;73.10;100143.72;5065977;28;20040;-31
2022/04/22 06:05:24;;;;;;;21.45;16.23;;;;;;;8.67;73.23;100139.31;5068636;28;20089;-31
2022/04/22 06:10:35;;;;;;;21.02;16.05;;;;;;;8.69;73.83;100136.66;5066651;28;20411;-30
2022/04/22 06:13:01;;;;;;;18.35;15.88;;;;;;;8.70;73.67;100123.50;5066747;28;20009;-31
2022/04/22 06:15:26;;;;;;;20.48;16.65;;;;;;;8.70;74.12;100127.88;5067665;28;20564;-30
2022/04/22 06:17:52;;;;;;;18.42;16.45;;;;;;;8.71;73.92;100121.78;5064300;28;20395;-30
2022/04/22 06:20:18;;;;;;;21.15;16.00;;;;;;;8.72;74.28;100120.88;5067613;28;20476;-31
2022/04/22 06:22:43;;;;;;;19.58;16.10;;;;;;;8.74;73.51;100121.75;5065929;28;20016;-30
2022/04/22 06:25:09;;;;;;;18.00;15.15;;;;;;;8.73;73.01;100123.50;5066570;28;20035;-31
2022/04/22 06:27:38;;;;;;;19.13;15.80;;;;;;;8.75;73.63;100125.22;5066181;28;20119;-31
2022/04/22 06:30:08;;;;;;;19.98;15.93;;;;;;;8.76;73.82;100122.59;5066362;28;20025;-30
2022/04/22 06:32:35;;;;;;;19.05;15.25;;;;;;;8.77;72.97;100124.31;5066725;28;20025;-30
2022/04/22 06:35:01;;;;;;;21.40;16.15;;;;;;;8.80;73.80;100123.44;5063496;28;20047;-31
2022/04/22 06:37:33;;;;;;;20.92;16.23;;;;;;;8.80;73.82;100121.66;5063212;28;20020;-31
2022/04/22 06:48:11;;;;;;;17.17;15.18;;;;;;;8.89;73.05;100132.97;5065143;28;20046;-30
2022/04/22 06:50:37;;;;;;;18.85;15.10;;;;;;;8.92;73.08;100127.69;5066014;28;20028;-30
2022/04/22 06:53:02;;;;;;;17.70;14.85;;;;;;;8.94;72.42;100121.50;5066418;28;20088;-30
2022/04/22 06:55:28;;;;;;;20.77;16.00;;;;;;;8.98;73.06;100117.09;5063597;28;20031;-31
2022/04/22 06:57:56;;;;;;;19.70;15.18;;;;;;;9.02;73.57;100116.16;5066574;28;20013;-30
2022/04/22 07:00:22;;;;;;;19.88;16.10;;;;;;;9.04;74.28;100122.25;5068485;28;20099;-30
2022/04/22 07:02:47;;;;;;;19.58;15.77;;;;;;;9.06;74.46;100117.00;5059740;28;20369;-30
2022/04/22 07:05:13;;;;;;;25.10;17.35;;;;;;;9.08;74.93;100118.75;5065377;28;20028;-31
2022/04/22 07:07:39;;;;;;;21.67;17.08;;;;;;;9.12;75.01;100119.56;5063658;28;20611;-31
2022/04/22 07:10:05;;;;;;;23.25;17.10;;;;;;;9.16;74.52;100120.38;5064653;28;20021;-30
2022/04/22 07:12:32;;;;;;;22.08;16.25;;;;;;;9.19;74.45;100123.84;5065245;28;20059;-31
2022/04/22 07:15:04;;;;;;;23.42;18.10;;;;;;;9.22;74.31;100129.09;5062289;28;20028;-31
2022/04/22 07:17:32;;;;;;;21.45;17.55;;;;;;;9.26;75.01;100124.66;5066851;28;20079;-31
2022/04/22 07:19:58;;;;;;;22.55;17.98;;;;;;;9.31;74.86;100129.88;5064729;28;20016;-31
2022/04/22 07:22:24;;;;;;;25.88;19.25;;;;;;;9.33;74.88;100121.06;5065891;28;20034;-31
2022/04/22 07:24:49;;;;;;;24.52;17.23;;;;;;;9.39;74.20;100121.84;5065668;28;20032;-31
2022/04/22 07:27:15;;;;;;;22.83;17.27;;;;;;;9.46;74.08;100128.78;5063312;28;20071;-31
2022/04/22 07:29:41;;;;;;;23.67;17.58;;;;;;;9.49;73.83;100128.75;5048192;28;20032;-31
2022/04/22 07:32:07;;;;;;;25.95;19.33;;;;;;;9.55;73.74;100120.78;5064918;28;20066;-29
2022/04/22 07:34:33;;;;;;;20.92;17.48;;;;;;;9.59;74.39;100117.19;5064647;28;20028;-30
2022/04/22 07:36:58;;;;;;;23.17;19.10;;;;;;;9.63;73.97;100118.91;5066373;28;20040;-31
2022/04/22 07:39:24;;;;;;;24.73;19.13;;;;;;;9.67;73.98;100118.88;5064657;28;20016;-31
2022/04/22 07:41:49;;;;;;;26.40;19.85;;;;;;;9.72;74.06;100115.28;5063294;28;20396;-31
2022/04/22 07:47:02;;;;;;;25.33;19.75;;;;;;;9.80;73.32;100123.03;5065657;28;20116;-30
2022/04/22 07:49:29;;;;;;;25.55;19.25;;;;;;;9.85;73.27;100115.97;5041712;28;20466;-31
2022/04/22 07:51:55;;;;;;;27.33;18.48;;;;;;;9.86;73.31;100122.97;5064511;28;20020;-31
2022/04/22 07:54:20;;;;;;;24.95;18.35;;;;;;;9.91;73.65;100115.00;5065665;28;20019;-31
2022/04/22 07:56:45;;;;;;;26.80;17.27;;;;;;;9.94;73.16;100122.81;5066362;28;20029;-31
2022/04/22 07:59:11;;;;;;;25.77;18.08;;;;;;;10.00;72.87;100119.22;5065397;28;20103;-31
2022/04/22 08:01:36;;;;;;;24.67;19.13;;;;;;;10.02;72.75;100120.09;5063792;28;20122;-31
2022/04/22 08:04:03;;;;;;;23.25;18.58;;;;;;;10.05;73.35;100121.81;5064757;28;20031;-31
2022/04/22 08:06:29;;;;;;;25.42;19.70;;;;;;;10.11;73.07;100125.19;5066190;28;20016;-31
2022/04/22 08:08:54;;;;;;;24.73;19.75;;;;;;;10.17;72.68;100118.13;5063088;28;20033;-31
2022/04/22 08:11:20;;;;;;;21.27;17.30;;;;;;;10.19;72.99;100118.94;5064789;28;20020;-31
2022/04/22 08:13:46;;;;;;;23.83;18.35;;;;;;;10.21;73.53;100119.78;5063293;28;20024;-31
2022/04/22 08:16:12;;;;;;;23.60;18.83;;;;;;;10.27;73.11;100122.31;5061620;28;20033;-31
2022/04/22 08:18:37;;;;;;;23.45;18.95;;;;;;;10.33;73.11;100131.88;5066404;28;20036;-31
2022/04/22 08:21:03;;;;;;;21.70;18.10;;;;;;;10.38;73.46;100128.28;5067515;28;20017;-31
2022/04/22 08:23:28;;;;;;;24.58;18.52;;;;;;;10.42;72.59;100136.13;5064922;28;20449;-30
2022/04/22 08:25:53;;;;;;;23.05;17.88;;;;;;;10.46;73.46;100129.94;5063144;28;20028;-31
2022/04/22 08:28:19;;;;;;;24.27;19.25;;;;;;;10.52;72.79;100127.22;5060959;28;20121;-31
2022/04/22 08:30:44;;;;;;;21.50;17.77;;;;;;;10.58;72.80;100128.88;5064550;28;20028;-32
2022/04/22 08:33:09;;;;;;;22.80;18.33;;;;;;;10.63;72.45;100137.56;5064081;28;20029;-30
2022/04/22 08:35:38;;;;;;;25.40;19.00;;;;;;;10.68;72.26;100127.81;5044273;28;20037;-30
2022/04/22 08:38:05;;;;;;;24.38;19.05;;;;;;;10.73;72.39;100125.94;5064273;28;20016;-31
2022/04/22 08:40:31;;;;;;;23.17;19.50;;;;;;;10.78;72.61;100124.09;5066810;28;20511;-32
2022/04/22 08:43:00;;;;;;;23.02;18.92;;;;;;;10.82;72.18;100124.91;5063822;28;20021;-31
2022/04/22 08:45:26;;;;;;;26.48;19.80;;;;;;;10.87;72.11;100138.88;5066564;28;20025;-31
2022/04/22 08:50:36;;;;;;;25.70;20.48;;;;;;;10.95;72.35;100129.94;5069549;28;20074;-30
2022/04/22 08:53:07;;;;;;;25.77;20.65;;;;;;;11.00;71.75;100122.78;5052339;28;20384;-31
2022/04/22 08:55:33;;;;;;;28.15;23.00;;;;;;;11.00;72.40;100123.69;5061547;28;20032;-31
2022/04/22 08:58:00;;;;;;;24.58;20.25;;;;;;;11.08;71.95;100126.19;5065555;28;20027;-29
2022/04/22 09:00:27;;;;;;;27.33;22.23;;;;;;;11.13;72.93;100124.31;5067671;28;20039;-29
2022/04/22 09:02:57;;;;;;;27.25;23.20;;;;;;;11.22;72.52;100123.25;5068769;28;20008;-29
2022/04/22 09:05:22;;;;;;;26.17;21.92;;;;;;;11.27;72.51;100123.16;5068676;28;20074;-29
2022/04/22 09:07:49;;;;;;;28.13;22.20;;;;;;;11.31;72.42;100116.91;5068047;28;20032;-30
2022/04/22 09:10:14;;;;;;;27.38;21.50;;;;;;;11.41;71.91;100122.88;5069639;28;20040;-29
2022/04/22 09:12:43;;;;;;;25.58;21.15;;;;;;;11.49;71.86;100120.94;5066804;28;20028;-29
2022/04/22 09:15:09;;;;;;;24.73;20.10;;;;;;;11.55;71.49;100109.38;5070122;28;20026;-29
2022/04/22 09:17:36;;;;;;;23.75;21.15;;;;;;;11.65;71.33;100105.63;5069428;28;20032;-29
2022/04/22 09:20:03;;;;;;;23.58;21.05;;;;;;;11.74;70.42;100116.88;5068684;28;20584;-29
2022/04/22 09:22:34;;;;;;;21.55;19.20;;;;;;;11.80;70.87;100104.38;5070211;28;20111;-30
2022/04/22 09:25:00;;;;;;;24.50;19.48;;;;;;;11.86;70.80;100100.72;5068934;28;20031;-29
2022/04/22 09:27:36;;;;;;;21.98;19.50;;;;;;;11.96;70.61;100097.84;5053103;28;20633;-29
2022/04/22 09:30:04;;;;;;;22.20;18.52;;;;;;;12.02;70.69;100097.72;5067137;28;20059;-29
2022/04/22 09:32:32;;;;;;;21.23;17.23;;;;;;;12.11;69.91;100086.97;5069633;28;20070;-29
2022/04/22 09:35:17;;;;;;;22.80;18.48;;;;;;;12.18;70.32;100088.53;5069536;28;20086;-29
2022/04/22 09:43:33;;;;;;;21.20;17.38;;;;;;;12.55;69.84;100080.56;5067410;28;20024;-29
2022/04/22 09:45:59;;;;;;;23.58;19.02;;;;;;;12.65;70.30;100074.13;5068193;28;20111;-29
2022/04/22 09:48:24;;;;;;;21.45;18.42;;;;;;;12.73;70.62;100075.69;5070001;28;20111;-29
2022/04/22 09:50:54;;;;;;;23.15;20.10;;;;;;;12.85;70.00;100072.69;5066521;28;20016;-29
2022/04/22 09:53:33;;;;;;;20.52;18.33;;;;;;;12.97;69.24;100082.03;5064091;28;20028;-31
2022/04/22 09:56:04;;;;;;;25.45;19.30;;;;;;;13.09;69.06;100081.69;5070656;28;20062;-29
2022/04/22 09:58:30;;;;;;;23.55;20.02;;;;;;;13.19;69.06;100070.81;5068668;28;20013;-30
2022/04/22 10:01:03;;;;;;;23.95;20.13;;;;;;;13.29;69.07;100072.28;5063050;28;20074;-29
2022/04/22 10:03:38;;;;;;;25.33;20.20;;;;;;;13.35;68.63;100071.25;5067620;28;20548;-30
2022/04/22 10:06:06;;;;;;;23.98;20.15;;;;;;;13.45;68.52;100074.47;5067952;28;20028;-29
2022/04/22 10:08:36;;;;;;;23.77;20.08;;;;;;;13.53;68.25;100071.59;5068219;28;20111;-29
2022/04/22 10:11:04;;;;;;;21.85;18.92;;;;;;;13.62;67.69;100065.16;5067847;28;20386;-29
2022/04/22 10:13:41;;;;;;;23.25;19.30;;;;;;;13.73;67.96;100063.91;5067505;28;20059;-28
2022/04/22 10:16:09;;;;;;;22.58;20.13;;;;;;;13.88;67.58;100069.63;5065470;28;20476;-29
2022/04/22 10:18:34;;;;;;;23.20;19.55;;;;;;;13.97;67.40;100058.72;5063575;28;20111;-28
2022/04/22 10:21:01;;;;;;;24.38;20.42;;;;;;;14.07;67.33;100061.94;5067830;28;20103;-29
2022/04/22 10:23:26;;;;;;;22.10;19.70;;;;;;;14.18;67.00;100061.59;5068211;28;20024;-29
2022/04/22 10:25:51;;;;;;;21.42;18.65;;;;;;;14.26;66.71;100065.72;5067156;28;20023;-29
2022/04/22 10:28:17;;;;;;;19.65;16.85;;;;;;;14.37;66.64;100067.09;5067324;28;20048;-29
2022/04/22 10:30:43;;;;;;;20.45;17.52;;;;;;;14.46;66.21;100060.63;5067309;28;20029;-29
2022/04/22 10:33:10;;;;;;;19.58;16.95;;;;;;;14.58;65.79;100058.44;5067327;28;20073;-29
2022/04/22 10:35:42;;;;;;;19.65;16.30;;;;;;;14.66;65.84;100045.78;5065424;28;20150;-29
2022/04/22 10:38:27;;;;;;;18.00;16.15;;;;;;;14.77;65.36;100055.13;5067843;28;20024;-29
2022/04/22 10:40:52;;;;;;;18.48;16.15;;;;;;;14.85;65.66;100051.31;5065331;28;20029;-29
2022/04/22 10:43:18;;;;;;;17.05;15.02;;;;;;;14.94;65.42;100050.09;5067253;28;20025;-28
2022/04/22 10:48:30;;;;;;;16.88;15.13;;;;;;;15.15;65.19;100036.94;5067259;28;20384;-29
2022/04/22 10:51:03;;;;;;;17.25;15.43;;;;;;;15.24;64.65;100039.22;5064513;28;20024;-29
2022/04/22 10:53:34;;;;;;;15.82;14.20;;;;;;;15.34;64.37;100039.72;5065805;28;20085;-29
2022/04/22 10:56:18;;;;;;;;;;;;;;;15.43;64.17;100041.16;5064607;28;20033;-29
2022/04/22 10:58:43;;;;;;;16.95;13.65;;;;;;;15.56;64.40;100044.19;5064995;28;20360;-28
2022/04/22 11:01:29;;;;;;;17.08;14.15;;;;;;;15.68;64.41;100045.50;5066697;28;20048;-28
2022/04/22 11:03:55;;;;;;;15.75;14.20;;;;;;;15.80;64.21;100036.13;5066124;28;20076;-31
2022/04/22 11:06:20;;;;;;;15.90;14.30;;;;;;;15.90;64.19;100041.94;5066679;28;20487;-28
2022/04/22 11:08:59;;;;;;;16.05;14.35;;;;;;;16.01;63.66;100036.22;5065379;28;20064;-29
2022/04/22 11:11:24;;;;;;;14.98;13.38;;;;;;;16.10;63.61;100035.81;5065643;28;20409;-29
2022/04/22 11:13:53;;;;;;;15.70;12.50;;;;;;;16.19;63.47;100023.94;5068614;28;20530;-29
2022/04/22 11:16:28;;;;;;;15.80;12.95;;;;;;;16.30;63.37;100026.13;5061642;28;20029;-28
2022/04/22 11:19:18;;;;;;;14.80;13.20;;;;;;;16.44;63.00;100027.31;5066335;28;20372;-29
2022/04/22 11:21:45;;;;;;;14.23;12.73;;;;;;;16.54;62.85;100032.16;5065401;28;20506;-28
2022/04/22 11:24:20;;;;;;;15.70;13.63;;;;;;;16.62;62.32;100025.63;5066988;28;20040;-30
2022/04/22 11:26:46;;;;;;;15.93;12.45;;;;;;;16.73;62.24;100014.50;5064485;28;20577;-28
2022/04/22 11:29:12;;;;;;;13.88;12.43;;;;;;;16.78;61.49;100013.34;5067390;28;20036;-29
2022/04/22 11:31:38;;;;;;;15.32;12.15;;;;;;;16.85;61.39;100008.63;5065135;28;20016;-29
2022/04/22 11:34:08;;;;;;;14.55;12.73;;;;;;;16.90;60.85;100016.38;5064177;28;20384;-29
2022/04/22 11:36:47;;;;;;;13.60;12.13;;;;;;;17.00;60.75;100015.03;5044600;28;20024;-29
2022/04/22 11:39:20;;;;;;;13.13;11.73;;;;;;;17.05;60.95;100006.81;5065347;28;20739;-29
2022/04/22 11:41:53;;;;;;;13.73;12.35;;;;;;;17.14;60.64;100005.56;5047251;28;20032;-29
2022/04/22 11:44:20;;;;;;;13.68;12.27;;;;;;;17.20;60.70;100002.59;5065070;28;20024;-29
2022/04/22 11:46:46;;;;;;;14.70;13.20;;;;;;;17.25;61.26;100008.59;5064674;28;20059;-29
2022/04/22 11:49:11;;;;;;;13.63;12.27;;;;;;;17.34;60.53;99998.41;5064746;28;20067;-29
2022/04/22 11:51:37;;;;;;;15.48;12.85;;;;;;;17.37;60.84;100003.59;5062662;28;20055;-29
2022/04/22 11:54:02;;;;;;;13.32;11.98;;;;;;;17.44;59.77;100007.69;5067385;28;20027;-30
2022/04/22 11:56:27;;;;;;;14.55;13.02;;;;;;;17.46;59.76;100003.16;5065055;28;20036;-29
2022/04/22 11:58:54;;;;;;;15.02;13.48;;;;;;;17.53;59.65;100007.25;5065152;28;20016;-29
2022/04/22 12:06:57;;;;;;;14.15;12.70;;;;;;;17.72;59.64;99998.34;5064607;28;20441;-29
2022/04/22 12:09:22;;;;;;;16.00;13.80;;;;;;;17.77;59.29;99992.78;5065762;28;20028;-29
2022/04/22 12:11:50;;;;;;;15.70;13.98;;;;;;;17.83;59.32;99995.13;5064112;28;20411;-29
2022/04/22 12:14:25;;;;;;;16.38;14.57;;;;;;;17.87;59.13;99983.34;5065619;28;20031;-29